createdAt,value
2023-05-23T00:00:59.140Z,98473.84
2023-05-23T00:03:31.398Z,98475.72
2023-05-23T00:05:59.062Z,98469.59
2023-05-23T00:08:26.122Z,98472.00
2023-05-23T00:10:52.918Z,98478.50
2023-05-23T00:13:19.966Z,98470.88
2023-05-23T00:15:48.686Z,98470.25
2023-05-23T00:18:16.510Z,98463.09
2023-05-23T00:20:43.433Z,98459.50
2023-05-23T00:23:10.980Z,98457.50
2023-05-23T00:25:38.304Z,98455.97
2023-05-23T00:28:06.259Z,98469.63
2023-05-23T00:30:33.994Z,98476.50
2023-05-23T00:33:01.490Z,98466.84
2023-05-23T00:35:28.356Z,98472.16
2023-05-23T00:37:55.625Z,98466.69
2023-05-23T00:40:22.994Z,98468.94
2023-05-23T00:42:50.134Z,98474.28
2023-05-23T00:45:19.818Z,98472.59
2023-05-23T00:47:47.280Z,98464.94
2023-05-23T00:50:16.894Z,98460.50
2023-05-23T00:52:44.807Z,98461.72
2023-05-23T00:55:12.238Z,98456.44
2023-05-23T00:57:44.543Z,98466.00
2023-05-23T01:00:12.597Z,98464.31
2023-05-23T01:02:47.280Z,98458.72
2023-05-23T01:05:17.668Z,98463.84
2023-05-23T01:07:45.548Z,98463.69
2023-05-23T01:10:13.408Z,98455.53
2023-05-23T01:12:58.437Z,98463.06
2023-05-23T01:15:47.491Z,98458.13
2023-05-23T01:18:38.325Z,98456.06
2023-05-23T01:21:32.018Z,98455.06
2023-05-23T01:24:12.897Z,98448.25
2023-05-23T01:27:04.735Z,98448.44
2023-05-23T01:29:37.718Z,98445.56
2023-05-23T01:32:06.766Z,98448.16
2023-05-23T01:34:35.301Z,98451.56
2023-05-23T01:37:02.067Z,98449.19
2023-05-23T01:39:29.200Z,98446.97
2023-05-23T01:41:56.010Z,98447.00
2023-05-23T01:44:23.099Z,98452.41
2023-05-23T01:46:49.882Z,98449.38
2023-05-23T01:49:17.026Z,98438.28
2023-05-23T01:51:44.101Z,98444.25
2023-05-23T01:54:11.339Z,98440.69
2023-05-23T01:56:38.130Z,98443.75
2023-05-23T01:59:05.206Z,98449.03
2023-05-23T02:01:32.047Z,98448.53
2023-05-23T02:03:59.079Z,98443.59
2023-05-23T02:06:25.896Z,98438.84
2023-05-23T02:08:52.961Z,98443.25
2023-05-23T02:11:19.679Z,98441.75
2023-05-23T02:13:46.762Z,98439.88
2023-05-23T02:16:14.048Z,98440.03
2023-05-23T02:18:41.097Z,98440.03
2023-05-23T02:21:07.856Z,98437.13
2023-05-23T02:23:34.940Z,98439.53
2023-05-23T02:26:01.786Z,98433.41
2023-05-23T02:28:28.843Z,98442.41
2023-05-23T02:30:56.201Z,98437.13
2023-05-23T02:33:23.278Z,98435.78
2023-05-23T02:35:51.541Z,98433.72
2023-05-23T02:38:20.664Z,98438.00
2023-05-23T02:40:47.481Z,98436.09
2023-05-23T02:43:14.630Z,98436.44
2023-05-23T02:45:41.599Z,98438.16
2023-05-23T02:48:08.883Z,98427.59
2023-05-23T02:50:35.663Z,98430.28
2023-05-23T02:53:02.674Z,98438.59
2023-05-23T02:55:29.541Z,98423.63
2023-05-23T02:57:56.884Z,98427.03
2023-05-23T03:00:23.668Z,98416.81
2023-05-23T03:02:51.310Z,98417.81
2023-05-23T03:05:18.788Z,98417.34
2023-05-23T03:07:45.958Z,98410.19
2023-05-23T03:10:12.721Z,98418.66
2023-05-23T03:12:39.867Z,98410.00
2023-05-23T03:15:07.065Z,98404.00
2023-05-23T03:17:34.143Z,98404.69
2023-05-23T03:20:00.957Z,98405.38
2023-05-23T03:22:28.061Z,98402.28
2023-05-23T03:24:54.863Z,98401.63
2023-05-23T03:27:21.963Z,98401.47
2023-05-23T03:29:48.707Z,98402.47
2023-05-23T03:32:15.950Z,98400.91
2023-05-23T03:34:42.817Z,98402.13
2023-05-23T03:37:09.903Z,98409.75
2023-05-23T03:39:39.369Z,98406.53
2023-05-23T03:42:07.289Z,98407.34
2023-05-23T03:44:34.080Z,98403.25
2023-05-23T03:47:01.141Z,98399.88
2023-05-23T03:49:27.990Z,98398.66
2023-05-23T03:51:55.309Z,98404.09
2023-05-23T03:54:22.063Z,98396.97
2023-05-23T03:56:49.379Z,98394.41
2023-05-23T03:59:16.151Z,98394.94
2023-05-23T04:01:43.218Z,98392.03
2023-05-23T04:04:10.095Z,98389.16
2023-05-23T04:06:37.192Z,98391.38
2023-05-23T04:09:05.629Z,98394.59
2023-05-23T04:11:32.695Z,98386.16
2023-05-23T04:13:59.509Z,98379.81
2023-05-23T04:16:26.684Z,98375.78
2023-05-23T04:18:54.409Z,98375.44
2023-05-23T04:21:21.587Z,98378.88
2023-05-23T04:23:48.932Z,98374.25
2023-05-23T04:26:16.175Z,98380.34
2023-05-23T04:28:46.306Z,98378.88
2023-05-23T04:31:13.908Z,98375.78
2023-05-23T04:33:41.223Z,98378.34
2023-05-23T04:36:09.414Z,98375.44
2023-05-23T04:38:38.506Z,98378.69
2023-05-23T04:41:06.568Z,98373.44
2023-05-23T04:43:37.360Z,98378.19
2023-05-23T04:46:04.558Z,98375.81
2023-05-23T04:48:31.630Z,98373.41
2023-05-23T04:51:02.318Z,98379.22
2023-05-23T04:53:29.083Z,98373.81
2023-05-23T04:55:56.617Z,98372.78
2023-05-23T04:58:23.637Z,98376.34
2023-05-23T05:00:50.843Z,98380.28
2023-05-23T05:03:17.768Z,98371.97
2023-05-23T05:05:44.882Z,98372.47
2023-05-23T05:08:11.673Z,98375.19
2023-05-23T05:10:40.634Z,98371.94
2023-05-23T05:13:07.544Z,98377.75
2023-05-23T05:15:34.633Z,98374.97
2023-05-23T05:18:01.450Z,98374.47
2023-05-23T05:20:28.729Z,98372.06
2023-05-23T05:22:57.208Z,98365.78
2023-05-23T05:25:24.571Z,98371.38
2023-05-23T05:27:52.533Z,98367.28
2023-05-23T05:30:19.804Z,98361.97
2023-05-23T05:32:46.787Z,98361.47
2023-05-23T05:35:16.958Z,98362.28
2023-05-23T05:37:43.804Z,98373.50
2023-05-23T05:40:12.260Z,98376.41
2023-05-23T05:42:38.984Z,98367.00
2023-05-23T05:45:06.752Z,98369.88
2023-05-23T05:47:33.468Z,98372.75
2023-05-23T05:50:00.585Z,98368.81
2023-05-23T05:52:27.310Z,98373.56
2023-05-23T05:54:54.358Z,98366.34
2023-05-23T05:57:21.171Z,98357.63
2023-05-23T05:59:48.208Z,98357.09
2023-05-23T06:02:14.988Z,98361.81
2023-05-23T06:04:42.176Z,98366.75
2023-05-23T06:07:09.491Z,98356.13
2023-05-23T06:09:36.660Z,98358.16
2023-05-23T06:12:03.587Z,98357.06
2023-05-23T06:14:30.722Z,98348.00
2023-05-23T06:16:57.899Z,98348.28
2023-05-23T06:19:25.184Z,98346.34
2023-05-23T06:21:52.937Z,98346.28
2023-05-23T06:24:20.018Z,98342.16
2023-05-23T06:26:46.774Z,98334.06
2023-05-23T06:29:13.932Z,98336.22
2023-05-23T06:31:40.753Z,98343.34
2023-05-23T06:34:07.856Z,98334.41
2023-05-23T06:36:34.651Z,98337.06
2023-05-23T06:39:01.751Z,98342.81
2023-05-23T06:41:28.502Z,98334.31
2023-05-23T06:43:55.650Z,98332.75
2023-05-23T06:46:22.494Z,98333.16
2023-05-23T06:48:56.432Z,98327.38
2023-05-23T06:51:29.756Z,98333.78
2023-05-23T06:53:57.233Z,98324.84
2023-05-23T06:56:24.131Z,98319.81
2023-05-23T06:58:51.223Z,98319.72
2023-05-23T07:01:17.998Z,98313.47
2023-05-23T07:03:45.911Z,98309.78
2023-05-23T07:06:12.774Z,98298.97
2023-05-23T07:08:39.936Z,98307.50
2023-05-23T07:11:06.816Z,98301.91
2023-05-23T07:13:34.187Z,98299.22
2023-05-23T07:16:00.977Z,98289.63
2023-05-23T07:18:28.065Z,98303.19
2023-05-23T07:20:54.868Z,98291.06
2023-05-23T07:23:23.692Z,98298.09
2023-05-23T07:26:01.866Z,98298.16
2023-05-23T07:28:30.304Z,98295.06
2023-05-23T07:30:58.471Z,98292.03
2023-05-23T07:33:25.776Z,98298.00
2023-05-23T07:35:52.663Z,98291.72
2023-05-23T07:38:19.771Z,98288.63
2023-05-23T07:40:52.741Z,98293.09
2023-05-23T07:43:26.199Z,98298.03
2023-05-23T07:45:52.981Z,98295.97
2023-05-23T07:48:20.071Z,98292.84
2023-05-23T07:50:46.789Z,98298.00
2023-05-23T07:53:13.905Z,98291.47
2023-05-23T07:55:41.210Z,98288.34
2023-05-23T07:58:08.319Z,98290.06
2023-05-23T08:00:35.145Z,98284.00
2023-05-23T08:03:02.270Z,98283.78
2023-05-23T08:05:29.242Z,98276.44
2023-05-23T08:07:56.465Z,98276.88
2023-05-23T08:10:23.308Z,98266.13
2023-05-23T08:12:50.455Z,98269.72
2023-05-23T08:15:17.342Z,98271.66
2023-05-23T08:17:44.578Z,98266.38
2023-05-23T08:20:12.276Z,98272.69
2023-05-23T08:22:39.386Z,98269.75
2023-05-23T08:25:06.355Z,98264.66
2023-05-23T08:27:35.702Z,98270.56
2023-05-23T08:30:03.959Z,98272.69
2023-05-23T08:32:31.047Z,98269.91
2023-05-23T08:34:58.433Z,98271.41
2023-05-23T08:37:25.634Z,98259.06
2023-05-23T08:39:52.430Z,98258.19
2023-05-23T08:42:19.615Z,98265.59
2023-05-23T08:44:46.529Z,98263.44
2023-05-23T08:47:13.601Z,98264.47
2023-05-23T08:49:41.024Z,98268.66
2023-05-23T08:52:08.218Z,98268.16
2023-05-23T08:54:35.431Z,98268.81
2023-05-23T08:57:02.997Z,98260.69
2023-05-23T08:59:29.792Z,98259.75
2023-05-23T09:01:57.347Z,98260.34
2023-05-23T09:04:24.243Z,98261.34
2023-05-23T09:06:51.356Z,98259.97
2023-05-23T09:09:18.338Z,98262.22
2023-05-23T09:11:46.181Z,98249.03
2023-05-23T09:14:14.671Z,98261.00
2023-05-23T09:16:42.051Z,98257.91
2023-05-23T09:19:13.220Z,98251.25
2023-05-23T09:21:46.665Z,98257.34
2023-05-23T09:24:13.405Z,98262.72
2023-05-23T09:26:40.631Z,98255.81
2023-05-23T09:29:07.793Z,98253.88
2023-05-23T09:31:35.023Z,98247.81
2023-05-23T09:34:01.936Z,98248.63
2023-05-23T09:36:30.302Z,98254.88
2023-05-23T09:38:57.139Z,98250.28
2023-05-23T09:41:25.234Z,98244.22
2023-05-23T09:43:52.654Z,98242.91
2023-05-23T09:46:20.521Z,98240.53
2023-05-23T09:48:52.301Z,98232.66
2023-05-23T09:51:23.460Z,98225.31
2023-05-23T09:53:50.339Z,98223.31
2023-05-23T09:56:17.643Z,98221.22
2023-05-23T09:58:47.367Z,98205.47
2023-05-23T10:01:14.887Z,98213.44
2023-05-23T10:03:56.075Z,98206.72
2023-05-23T10:06:53.344Z,98205.50
2023-05-23T10:09:21.233Z,98215.03
2023-05-23T10:11:57.520Z,98209.59
2023-05-23T10:14:24.277Z,98203.75
2023-05-23T10:17:06.884Z,98209.75
2023-05-23T10:19:43.580Z,98209.97
2023-05-23T10:22:10.923Z,98213.81
2023-05-23T10:24:37.867Z,98213.41
2023-05-23T10:27:05.081Z,98210.78
2023-05-23T10:29:33.681Z,98215.44
2023-05-23T10:32:02.764Z,98207.09
2023-05-23T10:34:32.574Z,98214.31
2023-05-23T10:37:01.730Z,98207.88
2023-05-23T10:39:34.804Z,98205.28
2023-05-23T10:42:10.608Z,98205.97
2023-05-23T10:44:37.367Z,98213.31
2023-05-23T10:47:05.050Z,98209.28
2023-05-23T10:49:48.391Z,98210.59
2023-05-23T10:52:17.006Z,98216.78
2023-05-23T10:54:53.378Z,98214.72
2023-05-23T10:57:27.933Z,98212.63
2023-05-23T10:59:54.808Z,98207.06
2023-05-23T11:02:26.476Z,98209.09
2023-05-23T11:05:19.602Z,98207.56
2023-05-23T11:07:46.744Z,98200.06
2023-05-23T11:10:16.772Z,98202.91
2023-05-23T11:12:44.550Z,98207.50
2023-05-23T11:15:17.302Z,98208.34
2023-05-23T11:17:54.370Z,98237.19
2023-05-23T11:20:23.619Z,98259.69
2023-05-23T11:23:01.227Z,98269.75
2023-05-23T11:25:54.047Z,98280.59
2023-05-23T11:28:21.396Z,98270.22
2023-05-23T11:30:48.768Z,98284.25
2023-05-23T11:33:17.085Z,98299.97
2023-05-23T11:35:47.918Z,98291.31
2023-05-23T11:38:18.337Z,98295.06
2023-05-23T11:40:46.419Z,98298.56
2023-05-23T11:43:15.646Z,98296.31
2023-05-23T11:45:42.816Z,98301.91
2023-05-23T11:48:11.915Z,98298.16
2023-05-23T11:50:49.057Z,98286.03
2023-05-23T11:53:18.742Z,98277.22
2023-05-23T11:55:55.991Z,98283.13
2023-05-23T11:58:26.343Z,98280.16
2023-05-23T12:00:55.253Z,98282.28
2023-05-23T12:03:22.844Z,98281.00
2023-05-23T12:05:49.738Z,98278.34
2023-05-23T12:08:16.832Z,98269.38
2023-05-23T12:10:53.155Z,98269.13
2023-05-23T12:13:20.808Z,98258.41
2023-05-23T12:15:49.441Z,98250.09
2023-05-23T12:18:20.197Z,98238.78
2023-05-23T12:20:49.368Z,98231.94
2023-05-23T12:23:24.573Z,98223.88
2023-05-23T12:25:54.824Z,98213.25
2023-05-23T12:28:22.827Z,98218.63
2023-05-23T12:30:49.671Z,98208.75
2023-05-23T12:33:18.615Z,98224.69
2023-05-23T12:35:45.557Z,98234.78
2023-05-23T12:38:16.475Z,98229.34
2023-05-23T12:40:43.666Z,98227.03
2023-05-23T12:43:11.287Z,98229.19
2023-05-23T12:45:38.320Z,98226.03
2023-05-23T12:48:07.103Z,98235.88
2023-05-23T12:50:34.278Z,98224.66
2023-05-23T12:53:01.468Z,98227.66
2023-05-23T12:55:28.359Z,98224.28
2023-05-23T12:57:55.432Z,98225.72
2023-05-23T13:00:22.275Z,98229.16
2023-05-23T13:02:50.513Z,98228.94
2023-05-23T13:05:17.761Z,98227.50
2023-05-23T13:07:44.826Z,98231.94
2023-05-23T13:10:11.857Z,98237.00
2023-05-23T13:12:38.940Z,98231.25
2023-05-23T13:15:06.567Z,98235.94
2023-05-23T13:17:33.730Z,98220.41
2023-05-23T13:20:01.211Z,98228.47
2023-05-23T13:22:29.058Z,98234.00
2023-05-23T13:24:55.826Z,98229.97
2023-05-23T13:27:22.900Z,98236.75
2023-05-23T13:29:49.695Z,98238.91
2023-05-23T13:32:16.838Z,98238.91
2023-05-23T13:34:43.601Z,98245.50
2023-05-23T13:37:10.832Z,98241.31
2023-05-23T13:39:37.589Z,98251.91
2023-05-23T13:42:04.814Z,98250.66
2023-05-23T13:44:31.648Z,98251.97
2023-05-23T13:47:11.826Z,98256.03
2023-05-23T13:49:39.732Z,98257.13
2023-05-23T13:52:06.805Z,98249.66
2023-05-23T13:54:33.619Z,98249.91
2023-05-23T13:57:01.333Z,98250.75
2023-05-23T13:59:28.204Z,98246.31
2023-05-23T14:01:55.357Z,98248.28
2023-05-23T14:04:23.161Z,98251.03
2023-05-23T14:06:50.942Z,98252.59
2023-05-23T14:09:18.057Z,98264.47
2023-05-23T14:11:45.288Z,98263.63
2023-05-23T14:14:12.009Z,98262.38
2023-05-23T14:16:39.151Z,98263.72
2023-05-23T14:19:06.001Z,98256.72
2023-05-23T14:21:33.763Z,98260.78
2023-05-23T14:24:00.589Z,98264.84
2023-05-23T14:26:27.875Z,98271.47
2023-05-23T14:28:54.700Z,98263.63
2023-05-23T14:31:22.142Z,98267.91
2023-05-23T14:33:50.022Z,98267.06
2023-05-23T14:36:17.209Z,98269.00
2023-05-23T14:38:46.653Z,98271.38
2023-05-23T14:41:14.079Z,98275.63
2023-05-23T14:43:41.074Z,98281.59
2023-05-23T14:46:09.170Z,98288.41
2023-05-23T14:48:36.048Z,98279.97
2023-05-23T14:51:03.349Z,98288.25
2023-05-23T14:53:30.206Z,98282.94
2023-05-23T14:55:57.306Z,98285.09
2023-05-23T14:58:25.654Z,98287.22
2023-05-23T15:00:52.868Z,98286.00
2023-05-23T15:03:19.870Z,98277.94
2023-05-23T15:05:49.024Z,98272.03
2023-05-23T15:08:17.027Z,98274.78
2023-05-23T15:10:45.501Z,98267.81
2023-05-23T15:13:12.339Z,98259.16
2023-05-23T15:15:40.898Z,98260.22
2023-05-23T15:18:10.049Z,98270.16
2023-05-23T15:20:37.300Z,98263.44
2023-05-23T15:23:04.634Z,98261.97
2023-05-23T15:25:48.084Z,98254.78
2023-05-23T15:28:16.573Z,98259.66
2023-05-23T15:30:44.010Z,98254.59
2023-05-23T15:33:12.870Z,98249.09
2023-05-23T15:35:40.399Z,98246.56
2023-05-23T15:38:07.367Z,98252.28
2023-05-23T15:40:34.482Z,98251.66
2023-05-23T15:43:01.231Z,98261.63
2023-05-23T15:45:28.306Z,98262.69
2023-05-23T15:47:55.131Z,98265.03
2023-05-23T15:50:22.278Z,98260.19
2023-05-23T15:52:49.052Z,98260.63
2023-05-23T15:55:16.185Z,98262.50
2023-05-23T15:57:42.974Z,98264.66
2023-05-23T16:00:10.614Z,98271.00
2023-05-23T16:02:37.393Z,98261.28
2023-05-23T16:05:04.737Z,98254.28
2023-05-23T16:07:31.529Z,98249.66
2023-05-23T16:09:58.597Z,98251.31
2023-05-23T16:12:25.473Z,98246.03
2023-05-23T16:14:52.525Z,98228.88
2023-05-23T16:17:19.298Z,98229.97
2023-05-23T16:19:46.497Z,98226.78
2023-05-23T16:22:13.264Z,98234.81
2023-05-23T16:24:40.329Z,98236.97
2023-05-23T16:27:07.083Z,98239.09
2023-05-23T16:29:34.342Z,98241.00
2023-05-23T16:32:01.267Z,98247.78
2023-05-23T16:34:28.368Z,98249.09
2023-05-23T16:36:55.243Z,98238.28
2023-05-23T16:39:22.310Z,98243.38
2023-05-23T16:41:49.094Z,98240.88
2023-05-23T16:44:16.273Z,98245.97
2023-05-23T16:46:43.221Z,98245.13
2023-05-23T16:49:11.086Z,98248.09
2023-05-23T16:51:37.815Z,98252.38
2023-05-23T16:54:05.022Z,98252.59
2023-05-23T16:56:31.892Z,98259.59
2023-05-23T16:58:58.999Z,98256.25
2023-05-23T17:01:25.949Z,98257.53
2023-05-23T17:03:53.469Z,98246.53
2023-05-23T17:06:20.427Z,98247.19
2023-05-23T17:08:47.551Z,98253.75
2023-05-23T17:11:14.340Z,98252.06
2023-05-23T17:13:41.485Z,98255.03
2023-05-23T17:16:08.394Z,98265.88
2023-05-23T17:18:36.270Z,98269.47
2023-05-23T17:21:03.101Z,98271.81
2023-05-23T17:23:30.235Z,98273.31
2023-05-23T17:25:56.999Z,98274.63
2023-05-23T17:28:24.101Z,98282.25
2023-05-23T17:30:51.767Z,98277.41
2023-05-23T17:33:19.307Z,98278.88
2023-05-23T17:35:46.751Z,98276.31
2023-05-23T17:38:13.800Z,98278.66
2023-05-23T17:40:41.966Z,98280.16
2023-05-23T17:43:09.412Z,98279.75
2023-05-23T17:45:36.226Z,98286.53
2023-05-23T17:48:04.007Z,98281.47
2023-05-23T17:50:31.134Z,98286.34
2023-05-23T17:52:59.167Z,98282.13
2023-05-23T17:55:26.450Z,98295.66
2023-05-23T17:57:53.497Z,98292.28
2023-05-23T18:00:21.194Z,98290.84
2023-05-23T18:02:48.457Z,98293.19
2023-05-23T18:05:15.761Z,98293.19
2023-05-23T18:07:42.864Z,98293.19
2023-05-23T18:10:09.952Z,98298.50
2023-05-23T18:12:37.009Z,98310.13
2023-05-23T18:15:04.083Z,98307.19
2023-05-23T18:17:31.251Z,98307.59
2023-05-23T18:19:58.098Z,98301.91
2023-05-23T18:22:25.636Z,98307.63
2023-05-23T18:24:52.434Z,98307.81
2023-05-23T18:27:19.504Z,98307.00
2023-05-23T18:29:47.529Z,98313.13
2023-05-23T18:32:15.090Z,98319.84
2023-05-23T18:34:42.792Z,98317.31
2023-05-23T18:37:09.887Z,98321.56
2023-05-23T18:39:36.624Z,98337.44
2023-05-23T18:42:04.084Z,98330.66
2023-05-23T18:44:31.089Z,98328.56
2023-05-23T18:46:58.215Z,98334.25
2023-05-23T18:49:25.096Z,98332.34
2023-05-23T18:51:54.329Z,98333.81
2023-05-23T18:54:21.280Z,98333.19
2023-05-23T18:56:48.331Z,98335.31
2023-05-23T18:59:16.916Z,98330.84
2023-05-23T19:01:44.029Z,98337.63
2023-05-23T19:04:10.954Z,98342.50
2023-05-23T19:06:38.289Z,98351.78
2023-05-23T19:09:09.558Z,98339.09
2023-05-23T19:11:37.507Z,98341.63
2023-05-23T19:14:04.273Z,98345.44
2023-05-23T19:16:31.625Z,98340.56
2023-05-23T19:18:58.504Z,98340.78
2023-05-23T19:21:26.608Z,98345.44
2023-05-23T19:23:53.371Z,98348.38
2023-05-23T19:26:20.704Z,98346.47
2023-05-23T19:28:47.538Z,98343.28
2023-05-23T19:31:14.692Z,98346.44
2023-05-23T19:33:41.686Z,98346.19
2023-05-23T19:36:08.755Z,98345.75
2023-05-23T19:38:36.407Z,98339.63
2023-05-23T19:41:03.560Z,98349.53
2023-05-23T19:43:30.378Z,98344.69
2023-05-23T19:45:57.556Z,98352.91
2023-05-23T19:48:24.365Z,98362.59
2023-05-23T19:50:51.633Z,98363.84
2023-05-23T19:53:18.466Z,98355.63
2023-05-23T19:55:45.673Z,98362.34
2023-05-23T19:58:12.654Z,98368.66
2023-05-23T20:00:40.154Z,98357.66
2023-05-23T20:03:07.301Z,98371.41
2023-05-23T20:05:34.562Z,98370.97
2023-05-23T20:08:01.545Z,98371.81
2023-05-23T20:10:28.693Z,98374.50
2023-05-23T20:12:55.633Z,98388.25
2023-05-23T20:15:38.092Z,98386.53
2023-05-23T20:18:05.940Z,98382.50
2023-05-23T20:20:33.100Z,98390.28
2023-05-23T20:22:59.855Z,98388.84
2023-05-23T20:25:29.632Z,98388.81
2023-05-23T20:27:56.673Z,98390.22
2023-05-23T20:30:23.776Z,98390.91
2023-05-23T20:32:53.586Z,98391.66
2023-05-23T20:35:23.560Z,98391.81
2023-05-23T20:37:53.735Z,98405.97
2023-05-23T20:40:22.228Z,98410.00
2023-05-23T20:42:49.891Z,98407.44
2023-05-23T20:45:17.393Z,98413.34
2023-05-23T20:47:44.285Z,98409.94
2023-05-23T20:50:12.707Z,98413.94
2023-05-23T20:52:41.476Z,98417.50
2023-05-23T20:55:08.919Z,98408.84
2023-05-23T20:57:36.919Z,98415.13
2023-05-23T21:00:13.440Z,98416.56
2023-05-23T21:02:40.644Z,98410.69
2023-05-23T21:05:08.365Z,98411.03
2023-05-23T21:07:35.317Z,98415.66
2023-05-23T21:10:02.734Z,98416.31
2023-05-23T21:12:29.555Z,98415.22
2023-05-23T21:14:57.161Z,98422.84
2023-05-23T21:17:24.165Z,98419.19
2023-05-23T21:19:51.588Z,98420.47
2023-05-23T21:22:18.399Z,98422.53
2023-05-23T21:24:45.482Z,98417.72
2023-05-23T21:27:12.587Z,98416.41
2023-05-23T21:29:39.678Z,98420.22
2023-05-23T21:32:06.925Z,98418.03
2023-05-23T21:34:34.034Z,98426.47
2023-05-23T21:37:00.883Z,98421.75
2023-05-23T21:39:39.281Z,98429.16
2023-05-23T21:42:14.307Z,98432.28
2023-05-23T21:44:41.513Z,98435.84
2023-05-23T21:47:08.290Z,98437.78
2023-05-23T21:49:35.587Z,98441.38
2023-05-23T21:52:02.544Z,98442.09
2023-05-23T21:54:29.667Z,98440.91
2023-05-23T21:56:56.575Z,98442.53
2023-05-23T21:59:23.862Z,98445.28
2023-05-23T22:01:50.932Z,98440.00
2023-05-23T22:04:21.060Z,98438.03
2023-05-23T22:06:47.843Z,98437.31
2023-05-23T22:09:15.464Z,98435.47
2023-05-23T22:11:42.462Z,98440.03
2023-05-23T22:14:09.904Z,98443.88
2023-05-23T22:16:39.738Z,98443.97
2023-05-23T22:19:08.053Z,98453.56
2023-05-23T22:21:34.921Z,98453.66
2023-05-23T22:24:01.956Z,98460.56
2023-05-23T22:26:28.986Z,98457.16
2023-05-23T22:28:56.208Z,98466.72
2023-05-23T22:31:24.190Z,98461.06
2023-05-23T22:33:51.494Z,98465.00
2023-05-23T22:36:18.222Z,98455.22
2023-05-23T22:38:45.754Z,98463.72
2023-05-23T22:41:12.665Z,98461.81
2023-05-23T22:43:40.156Z,98461.34
2023-05-23T22:46:07.189Z,98467.09
2023-05-23T22:48:35.478Z,98461.72
2023-05-23T22:51:02.781Z,98466.19
2023-05-23T22:53:30.148Z,98465.91
2023-05-23T22:55:57.450Z,98464.94
2023-05-23T22:58:24.549Z,98461.81
2023-05-23T23:00:51.524Z,98457.09
2023-05-23T23:03:18.837Z,98463.22
2023-05-23T23:05:46.388Z,98459.66
2023-05-23T23:08:13.599Z,98458.41
2023-05-23T23:10:41.876Z,98454.19
2023-05-23T23:13:09.303Z,98452.84
2023-05-23T23:15:36.835Z,98451.16
2023-05-23T23:18:05.942Z,98457.00
2023-05-23T23:20:33.116Z,98456.03
2023-05-23T23:23:00.658Z,98455.56
2023-05-23T23:25:27.409Z,98458.59
2023-05-23T23:27:54.493Z,98457.56
2023-05-23T23:30:21.424Z,98450.38
2023-05-23T23:32:48.526Z,98449.44
2023-05-23T23:35:15.589Z,98455.94
2023-05-23T23:37:42.630Z,98448.50
2023-05-23T23:40:09.944Z,98450.88
2023-05-23T23:42:37.129Z,98452.75
2023-05-23T23:45:04.726Z,98454.63
2023-05-23T23:47:32.625Z,98456.91
2023-05-23T23:49:59.602Z,98457.53
2023-05-23T23:52:28.222Z,98460.75
2023-05-23T23:54:55.128Z,98460.28
2023-05-23T23:57:22.275Z,98456.22
2023-05-23T23:59:49.072Z,98467.19
